Mazatlan Airport, Mexico

8:11 PM MDT on June 01, 2015 (GMT -0600)
Gen Rafael Buelna International | | Change Station
CLOSE
Current Station
Airport
Location: Mazatlan Airport,
Elevation: 33 ft
Nearby Weather Stations

Elev 33 ft 23.16 °N, 106.27 °W | Updated 27 minutes ago

Mostly Cloudy
Mostly Cloudy
81 °F
Feels Like 83 °F
N
10
Wind Variable Wind from WSW

Today
High -- | Low -- °F
--% Chance of Precip.
Yesterday
High -- | Low -- °F
Precip. -- in
6:18 AM 7:47 PM
Full, 100% visible
Pressure 29.84 in
Visibility 12.0 miles
Clouds Scattered Clouds 9000 ft
Mostly Cloudy 23000 ft
Heat Index 83 °F
Dew Point 66 °F
Humidity 61%
Rainfall 0.00 in
Snow Depth Not available.
UV 0 out of 12
Pollen Not available.
Air Quality Not available.
Flu Activity Not available.
METAR MMMZ 020144Z 25009KT 12SM SCT090 BKN230 27/19 A2984 RMK 8/072 HZY

More Conditions Fewer Conditions

Pressure 29.84 in
Visibility 12.0 miles
Clouds Scattered Clouds 9000 ft
Mostly Cloudy 23000 ft
Heat Index 83 °F
Dew Point 66 °F
Humidity 61%
Rainfall 0.00 in
Snow Depth Not available.
UV 0 out of 12
Pollen Not available.
Air Quality Not available.
Flu Activity Not available.
METAR MMMZ 020144Z 25009KT 12SM SCT090 BKN230 27/19 A2984 RMK 8/072 HZY

More Conditions Fewer Conditions

10-Day Weather Forecast

Almanac

Astronomy

Jun. 01, 2015 Rise Set
Actual Time
Civil Twilight
Nautical Twilight
Astronomical Twilight
Moon
Length of Visible Light
Length of Day
Tomorrow will be .
, % of the Moon is Illuminated

Today's Extremes

Country Highs Country Lows

Community

WunderPhotos

Upload Photos

1,825,857 photos uploaded!

WunderBlogs® & News

Nearby

Air Quality

  Air Quality AQ Index Pollutant
Not available.

Snow Depth

Station Depth Elevation

Earthquake Activity

City Distance Mag. Time & Date
Minimum magnitude displayed is 2.5.

Coastal Water Temperatures

Place Temperature

Stations

Nearby Weather Stations

Station Location Temp. Windchill Dew Point Humidity Wind Precip. Elev Updated Type